Time,TemperatureF,DewpointF,PressureIn,WindDirection,WindDirectionDegrees,WindSpeedMPH,WindSpeedGustMPH,Humidity,HourlyPrecipIn,Conditions,Clouds,dailyrainin,SolarRadiationWatts/m^2,SoftwareType,DateUTC
2013-04-18 00:10:00,49.3,32.0,30.27,SSE,147,0.0,0.0,51,0.00,,,0.00,0,weatherlink.com 1.10,2013-04-18 07:10:00,
2013-04-18 00:25:00,48.7,33.0,30.27,SSE,147,0.0,2.0,55,0.00,,,0.00,0,weatherlink.com 1.10,2013-04-18 07:25:00,
2013-04-18 00:40:00,48.4,34.0,30.27,SSE,147,0.0,3.0,58,0.00,,,0.00,0,weatherlink.com 1.10,2013-04-18 07:40:00,
2013-04-18 00:55:00,47.9,34.0,30.27,SSE,147,0.0,0.0,59,0.00,,,0.00,0,weatherlink.com 1.10,2013-04-18 07:55:00,
2013-04-18 01:11:00,47.3,34.0,30.26,SSE,147,0.0,0.0,60,0.00,,,0.00,0,weatherlink.com 1.10,2013-04-18 08:11:00,
2013-04-18 01:26:00,46.7,34.0,30.27,SSE,147,1.0,2.0,62,0.00,,,0.00,0,weatherlink.com 1.10,2013-04-18 08:26:00,
2013-04-18 01:41:00,46.3,34.0,30.27,SSE,147,0.0,1.0,62,0.00,,,0.00,0,weatherlink.com 1.10,2013-04-18 08:41:00,
2013-04-18 01:56:00,46.0,34.0,30.26,SSE,147,0.0,2.0,63,0.00,,,0.00,0,weatherlink.com 1.10,2013-04-18 08:56:00,
2013-04-18 02:11:00,45.7,34.0,30.27,SSE,147,0.0,1.0,63,0.00,,,0.00,0,weatherlink.com 1.10,2013-04-18 09:11:00,
2013-04-18 02:26:00,45.4,34.0,30.26,SSE,147,0.0,0.0,64,0.00,,,0.00,0,weatherlink.com 1.10,2013-04-18 09:26:00,
2013-04-18 02:41:00,45.0,33.0,30.27,WSW,239,0.0,1.0,64,0.00,,,0.00,0,weatherlink.com 1.10,2013-04-18 09:41:00,
2013-04-18 03:11:00,44.7,32.0,30.26,WSW,239,0.0,2.0,62,0.00,,,0.00,0,weatherlink.com 1.10,2013-04-18 10:11:00,
2013-04-18 03:26:00,44.1,32.0,30.27,WSW,239,0.0,1.0,63,0.00,,,0.00,0,weatherlink.com 1.10,2013-04-18 10:26:00,
2013-04-18 03:56:00,43.3,32.0,30.28,WSW,239,0.0,0.0,65,0.00,,,0.00,0,weatherlink.com 1.10,2013-04-18 10:56:00,
2013-04-18 04:11:00,43.1,32.0,30.27,WSW,239,0.0,1.0,66,0.00,,,0.00,0,weatherlink.com 1.10,2013-04-18 11:11:00,
2013-04-18 04:26:00,42.7,32.0,30.27,WSW,239,0.0,1.0,67,0.00,,,0.00,0,weatherlink.com 1.10,2013-04-18 11:26:00,
2013-04-18 04:41:00,42.2,33.0,30.27,WSW,239,0.0,0.0,69,0.00,,,0.00,0,weatherlink.com 1.10,2013-04-18 11:41:00,
2013-04-18 05:11:00,41.9,33.0,30.27,WSW,239,0.0,2.0,70,0.00,,,0.00,0,weatherlink.com 1.10,2013-04-18 12:11:00,
2013-04-18 05:26:00,41.9,33.0,30.28,WSW,239,0.0,2.0,70,0.00,,,0.00,0,weatherlink.com 1.10,2013-04-18 12:26:00,
2013-04-18 05:41:00,41.5,33.0,30.28,WSW,239,0.0,1.0,71,0.00,,,0.00,0,weatherlink.com 1.10,2013-04-18 12:41:00,
2013-04-18 05:56:00,41.1,32.0,30.28,WSW,239,0.0,0.0,71,0.00,,,0.00,0,weatherlink.com 1.10,2013-04-18 12:56:00,
2013-04-18 06:11:00,40.8,32.0,30.29,WSW,239,0.0,0.0,72,0.00,,,0.00,0,weatherlink.com 1.10,2013-04-18 13:11:00,
2013-04-18 06:26:00,40.6,32.0,30.30,WSW,239,0.0,1.0,72,0.00,,,0.00,0,weatherlink.com 1.10,2013-04-18 13:26:00,
2013-04-18 06:41:00,40.5,32.0,30.30,WSW,239,0.0,0.0,72,0.00,,,0.00,9,weatherlink.com 1.10,2013-04-18 13:41:00,
2013-04-18 06:56:00,40.9,33.0,30.31,East,82,0.0,3.0,72,0.00,,,0.00,16,weatherlink.com 1.10,2013-04-18 13:56:00,
2013-04-18 07:11:00,41.8,33.0,30.31,East,82,0.0,1.0,71,0.00,,,0.00,21,weatherlink.com 1.10,2013-04-18 14:11:00,
2013-04-18 07:26:00,42.7,34.0,30.31,East,82,0.0,1.0,70,0.00,,,0.00,28,weatherlink.com 1.10,2013-04-18 14:26:00,
2013-04-18 07:41:00,44.0,34.0,30.32,East,82,0.0,2.0,68,0.00,,,0.00,37,weatherlink.com 1.10,2013-04-18 14:41:00,
2013-04-18 07:56:00,45.6,34.0,30.32,East,82,0.0,0.0,64,0.00,,,0.00,241,weatherlink.com 1.10,2013-04-18 14:56:00,
2013-04-18 08:11:00,47.8,35.0,30.32,East,82,0.0,1.0,61,0.00,,,0.00,294,weatherlink.com 1.10,2013-04-18 15:11:00,
2013-04-18 08:26:00,49.6,34.0,30.32,East,82,1.0,2.0,56,0.00,,,0.00,192,weatherlink.com 1.10,2013-04-18 15:26:00,
2013-04-18 08:42:00,52.0,35.0,30.32,East,82,1.0,1.0,53,0.00,,,0.00,408,weatherlink.com 1.10,2013-04-18 15:42:00,
2013-04-18 08:57:00,55.4,35.0,30.32,East,82,1.0,1.0,47,0.00,,,0.00,459,weatherlink.com 1.10,2013-04-18 15:57:00,
2013-04-18 09:12:00,58.6,37.0,30.32,East,83,0.0,2.0,44,0.00,,,0.00,510,weatherlink.com 1.10,2013-04-18 16:12:00,
2013-04-18 09:27:00,61.9,34.0,30.31,East,90,1.0,5.0,35,0.00,,,0.00,561,weatherlink.com 1.10,2013-04-18 16:27:00,
2013-04-18 09:42:00,64.0,33.0,30.31,NNW,344,1.0,6.0,31,0.00,,,0.00,605,weatherlink.com 1.10,2013-04-18 16:42:00,
2013-04-18 09:57:00,64.5,31.0,30.32,North,5,4.0,8.0,29,0.00,,,0.00,647,weatherlink.com 1.10,2013-04-18 16:57:00,
2013-04-18 10:12:00,64.7,32.0,30.32,NE,42,4.0,7.0,29,0.00,,,0.00,691,weatherlink.com 1.10,2013-04-18 17:12:00,
2013-04-18 10:28:00,65.7,32.0,30.32,North,11,1.0,5.0,28,0.00,,,0.00,733,weatherlink.com 1.10,2013-04-18 17:28:00,
2013-04-18 10:42:00,65.9,30.0,30.32,NE,35,3.0,6.0,26,0.00,,,0.00,768,weatherlink.com 1.10,2013-04-18 17:42:00,
2013-04-18 10:57:00,66.6,30.0,30.32,North,360,1.0,10.0,25,0.00,,,0.00,798,weatherlink.com 1.10,2013-04-18 17:57:00,
2013-04-18 11:13:00,67.9,30.0,30.32,NNE,18,5.0,5.0,24,0.00,,,0.00,830,weatherlink.com 1.10,2013-04-18 18:13:00,
2013-04-18 11:27:00,67.4,31.0,30.32,NE,40,3.0,7.0,26,0.00,,,0.00,851,weatherlink.com 1.10,2013-04-18 18:27:00,
2013-04-18 11:42:00,67.5,30.0,30.32,NE,44,3.0,9.0,25,0.00,,,0.00,872,weatherlink.com 1.10,2013-04-18 18:42:00,
2013-04-18 11:57:00,68.8,32.0,30.31,North,351,1.0,7.0,26,0.00,,,0.00,893,weatherlink.com 1.10,2013-04-18 18:57:00,
2013-04-18 12:12:00,69.2,31.0,30.31,West,273,1.0,9.0,24,0.00,,,0.00,905,weatherlink.com 1.10,2013-04-18 19:12:00,
2013-04-18 12:27:00,70.5,32.0,30.30,NE,55,2.0,9.0,24,0.00,,,0.00,914,weatherlink.com 1.10,2013-04-18 19:27:00,
2013-04-18 12:42:00,71.1,31.0,30.30,NNE,13,4.0,5.0,23,0.00,,,0.00,921,weatherlink.com 1.10,2013-04-18 19:42:00,
2013-04-18 12:57:00,71.3,32.0,30.29,NE,51,3.0,6.0,23,0.00,,,0.00,921,weatherlink.com 1.10,2013-04-18 19:57:00,
2013-04-18 13:12:00,72.2,32.0,30.29,East,83,1.0,5.0,23,0.00,,,0.00,923,weatherlink.com 1.10,2013-04-18 20:12:00,
2013-04-18 13:28:00,72.9,34.0,30.28,North,355,3.0,7.0,24,0.00,,,0.00,916,weatherlink.com 1.10,2013-04-18 20:28:00,
2013-04-18 13:43:00,73.8,34.0,30.28,North,355,0.0,6.0,23,0.00,,,0.00,905,weatherlink.com 1.10,2013-04-18 20:43:00,
2013-04-18 13:58:00,73.2,34.0,30.28,NE,49,3.0,8.0,24,0.00,,,0.00,889,weatherlink.com 1.10,2013-04-18 20:58:00,
2013-04-18 14:13:00,74.3,34.0,30.27,North,355,2.0,8.0,23,0.00,,,0.00,879,weatherlink.com 1.10,2013-04-18 21:13:00,
2013-04-18 14:28:00,74.6,31.0,30.27,NNE,22,0.0,9.0,20,0.00,,,0.00,856,weatherlink.com 1.10,2013-04-18 21:28:00,
2013-04-18 14:43:00,74.3,33.0,30.27,NNW,343,2.0,6.0,22,0.00,,,0.00,831,weatherlink.com 1.10,2013-04-18 21:43:00,
2013-04-18 14:58:00,75.4,33.0,30.26,North,350,0.0,8.0,21,0.00,,,0.00,807,weatherlink.com 1.10,2013-04-18 21:58:00,
2013-04-18 15:28:00,76.2,35.0,30.25,WSW,250,0.0,6.0,22,0.00,,,0.00,740,weatherlink.com 1.10,2013-04-18 22:28:00,
2013-04-18 15:43:00,76.4,34.0,30.25,NNE,24,2.0,8.0,21,0.00,,,0.00,705,weatherlink.com 1.10,2013-04-18 22:43:00,
2013-04-18 15:58:00,76.4,32.0,30.24,NNE,23,0.0,5.0,20,0.00,,,0.00,666,weatherlink.com 1.10,2013-04-18 22:58:00,
2013-04-18 16:13:00,77.7,34.0,30.24,SW,215,0.0,6.0,20,0.00,,,0.00,622,weatherlink.com 1.10,2013-04-18 23:13:00,
2013-04-18 16:28:00,77.2,34.0,30.23,WNW,287,0.0,7.0,21,0.00,,,0.00,580,weatherlink.com 1.10,2013-04-18 23:28:00,
2013-04-18 16:45:00,77.5,33.0,30.23,NE,38,1.0,7.0,20,0.00,,,0.00,531,weatherlink.com 1.10,2013-04-18 23:45:00,
2013-04-18 16:58:00,77.9,32.0,30.22,WSW,254,0.0,3.0,19,0.00,,,0.00,487,weatherlink.com 1.10,2013-04-18 23:58:00,
2013-04-18 17:13:00,77.1,33.0,30.22,West,281,3.0,4.0,20,0.00,,,0.00,432,weatherlink.com 1.10,2013-04-19 00:13:00,
2013-04-18 17:28:00,76.6,34.0,30.22,West,277,0.0,8.0,21,0.00,,,0.00,387,weatherlink.com 1.10,2013-04-19 00:28:00,
2013-04-18 17:43:00,77.5,33.0,30.22,NW,313,2.0,3.0,20,0.00,,,0.00,336,weatherlink.com 1.10,2013-04-19 00:43:00,
2013-04-18 17:58:00,75.6,39.0,30.22,West,278,5.0,11.0,27,0.00,,,0.00,279,weatherlink.com 1.10,2013-04-19 00:58:00,
2013-04-18 18:13:00,72.6,39.0,30.22,West,268,3.0,14.0,30,0.00,,,0.00,229,weatherlink.com 1.10,2013-04-19 01:13:00,
2013-04-18 18:28:00,71.9,40.0,30.22,West,270,3.0,10.0,32,0.00,,,0.00,179,weatherlink.com 1.10,2013-04-19 01:28:00,
2013-04-18 18:43:00,70.8,40.0,30.23,WSW,254,6.0,11.0,33,0.00,,,0.00,127,weatherlink.com 1.10,2013-04-19 01:43:00,
2013-04-18 18:58:00,70.0,40.0,30.22,WNW,287,2.0,10.0,34,0.00,,,0.00,76,weatherlink.com 1.10,2013-04-19 01:58:00,
2013-04-18 19:13:00,69.4,41.0,30.23,West,273,4.0,7.0,35,0.00,,,0.00,39,weatherlink.com 1.10,2013-04-19 02:13:00,
2013-04-18 19:28:00,67.9,39.0,30.23,WSW,254,3.0,8.0,35,0.00,,,0.00,16,weatherlink.com 1.10,2013-04-19 02:28:00,
2013-04-18 19:43:00,66.7,39.0,30.23,West,268,2.0,7.0,37,0.00,,,0.00,5,weatherlink.com 1.10,2013-04-19 02:43:00,
2013-04-18 19:58:00,65.9,39.0,30.24,West,267,0.0,1.0,38,0.00,,,0.00,0,weatherlink.com 1.10,2013-04-19 02:58:00,
2013-04-18 20:13:00,65.1,39.0,30.24,West,267,0.0,2.0,38,0.00,,,0.00,0,weatherlink.com 1.10,2013-04-19 03:13:00,
2013-04-18 20:28:00,64.1,39.0,30.24,West,267,1.0,3.0,40,0.00,,,0.00,0,weatherlink.com 1.10,2013-04-19 03:28:00,
2013-04-18 20:43:00,63.5,39.0,30.25,West,267,0.0,3.0,41,0.00,,,0.00,0,weatherlink.com 1.10,2013-04-19 03:43:00,
2013-04-18 20:58:00,62.7,39.0,30.25,West,267,0.0,1.0,42,0.00,,,0.00,0,weatherlink.com 1.10,2013-04-19 03:58:00,
2013-04-18 21:13:00,62.0,38.0,30.26,West,267,0.0,2.0,42,0.00,,,0.00,0,weatherlink.com 1.10,2013-04-19 04:13:00,
2013-04-18 21:28:00,61.5,39.0,30.26,ESE,118,1.0,2.0,43,0.00,,,0.00,0,weatherlink.com 1.10,2013-04-19 04:28:00,
2013-04-18 21:43:00,60.7,38.0,30.26,ESE,118,0.0,1.0,44,0.00,,,0.00,0,weatherlink.com 1.10,2013-04-19 04:43:00,
2013-04-18 21:58:00,59.8,39.0,30.27,ESE,118,0.0,0.0,46,0.00,,,0.00,0,weatherlink.com 1.10,2013-04-19 04:58:00,
2013-04-18 22:13:00,58.7,39.0,30.27,ESE,118,0.0,1.0,48,0.00,,,0.00,0,weatherlink.com 1.10,2013-04-19 05:13:00,
2013-04-18 22:28:00,58.0,39.0,30.27,ESE,118,0.0,0.0,50,0.00,,,0.00,0,weatherlink.com 1.10,2013-04-19 05:28:00,
2013-04-18 22:43:00,57.1,39.0,30.27,ESE,118,0.0,0.0,52,0.00,,,0.00,0,weatherlink.com 1.10,2013-04-19 05:43:00,
2013-04-18 22:58:00,56.3,40.0,30.27,ESE,118,0.0,0.0,55,0.00,,,0.00,0,weatherlink.com 1.10,2013-04-19 05:58:00,
2013-04-18 23:13:00,55.5,40.0,30.27,ESE,118,0.0,0.0,57,0.00,,,0.00,0,weatherlink.com 1.10,2013-04-19 06:13:00,
2013-04-18 23:28:00,54.9,40.0,30.27,ESE,118,0.0,0.0,58,0.00,,,0.00,0,weatherlink.com 1.10,2013-04-19 06:28:00,
2013-04-18 23:43:00,54.1,40.0,30.26,ESE,118,0.0,0.0,60,0.00,,,0.00,0,weatherlink.com 1.10,2013-04-19 06:43:00,
2013-04-18 23:58:00,53.2,40.0,30.25,ESE,118,0.0,0.0,62,0.00,,,0.00,0,weatherlink.com 1.10,2013-04-19 06:58:00,